createdAt,value
2023-02-19T00:02:42.168Z,97459.91
2023-02-19T00:05:32.259Z,97441.50
2023-02-19T00:08:49.596Z,97458.25
2023-02-19T00:11:38.968Z,97455.59
2023-02-19T00:14:31.121Z,97446.13
2023-02-19T00:17:29.822Z,97454.97
2023-02-19T00:20:22.539Z,97447.97
2023-02-19T00:23:09.446Z,97447.50
2023-02-19T00:26:17.712Z,97452.47
2023-02-19T00:29:10.757Z,97441.53
2023-02-19T00:32:00.238Z,97433.72
2023-02-19T00:34:52.960Z,97450.63
2023-02-19T00:38:11.970Z,97436.72
2023-02-19T00:41:25.878Z,97451.84
2023-02-19T00:44:13.391Z,97421.31
2023-02-19T00:47:05.405Z,97431.94
2023-02-19T00:49:52.359Z,97428.63
2023-02-19T01:03:16.807Z,97443.44
2023-02-19T01:09:31.929Z,97437.66
2023-02-19T01:12:54.930Z,97429.06
2023-02-19T01:15:47.546Z,97428.03
2023-02-19T01:19:02.178Z,97423.88
2023-02-19T01:22:04.102Z,97434.47
2023-02-19T01:32:57.858Z,97419.72
2023-02-19T01:36:32.257Z,97391.72
2023-02-19T01:39:38.020Z,97404.94
2023-02-19T01:42:26.437Z,97402.47
2023-02-19T01:45:56.135Z,97385.09
2023-02-19T01:53:05.669Z,97358.69
2023-02-19T01:59:39.526Z,97353.91
2023-02-19T02:02:37.072Z,97360.88
2023-02-19T02:06:23.611Z,97363.66
2023-02-19T02:09:43.473Z,97336.50
2023-02-19T02:19:54.815Z,97322.66
2023-02-19T02:23:46.619Z,97318.56
2023-02-19T02:27:32.284Z,97317.75
2023-02-19T02:34:41.500Z,97313.94
2023-02-19T02:38:02.185Z,97291.75
2023-02-19T02:40:56.619Z,97300.66
2023-02-19T02:43:48.042Z,97281.47
2023-02-19T02:46:51.143Z,97286.78
2023-02-19T02:50:07.246Z,97298.34
2023-02-19T02:53:25.282Z,97295.56
2023-02-19T02:56:38.727Z,97292.44
2023-02-19T02:59:43.825Z,97297.59
2023-02-19T03:06:20.978Z,97280.38
2023-02-19T03:09:50.428Z,97279.53
2023-02-19T03:13:11.282Z,97277.88
2023-02-19T03:16:33.840Z,97267.44
2023-02-19T03:23:02.444Z,97260.63
2023-02-19T03:26:16.063Z,97259.00
2023-02-19T03:29:29.068Z,97267.13
2023-02-19T03:32:38.373Z,97256.69
2023-02-19T03:35:38.129Z,97267.31
2023-02-19T03:38:31.843Z,97269.06
2023-02-19T03:42:08.429Z,97256.03
2023-02-19T03:47:35.892Z,97253.56
2023-02-19T03:50:39.371Z,97250.91
2023-02-19T03:53:44.864Z,97257.16
2023-02-19T03:56:42.420Z,97243.41
2023-02-19T03:59:38.170Z,97227.53
2023-02-19T04:02:33.302Z,97242.41
2023-02-19T04:05:30.323Z,97233.88
2023-02-19T04:08:33.780Z,97230.38
2023-02-19T04:11:25.117Z,97236.53
2023-02-19T04:14:25.123Z,97228.56
2023-02-19T04:17:28.162Z,97230.75
2023-02-19T04:20:22.470Z,97235.19
2023-02-19T04:23:37.496Z,97237.03
2023-02-19T04:26:35.148Z,97236.22
2023-02-19T04:29:28.415Z,97240.00
2023-02-19T04:32:16.056Z,97242.66
2023-02-19T04:39:00.440Z,97256.09
2023-02-19T04:41:52.251Z,97257.78
2023-02-19T04:44:51.815Z,97253.16
2023-02-19T04:58:05.353Z,97246.22
2023-02-19T05:01:13.201Z,97260.16
2023-02-19T05:04:00.391Z,97276.38
2023-02-19T05:06:52.047Z,97263.34
2023-02-19T05:09:38.931Z,97269.47
2023-02-19T05:12:26.431Z,97266.81
2023-02-19T05:15:20.333Z,97249.41
2023-02-19T05:18:22.460Z,97260.84
2023-02-19T05:21:10.366Z,97262.97
2023-02-19T05:24:06.989Z,97278.78
2023-02-19T05:27:02.249Z,97275.94
2023-02-19T05:29:52.034Z,97286.75
2023-02-19T05:32:39.402Z,97276.28
2023-02-19T05:35:26.403Z,97276.28
2023-02-19T05:38:16.003Z,97271.19
2023-02-19T05:41:20.909Z,97274.81
2023-02-19T05:51:19.726Z,97291.06
2023-02-19T05:59:02.164Z,97286.75
2023-02-19T06:08:46.479Z,97294.09
2023-02-19T06:15:07.580Z,97289.09
2023-02-19T06:21:42.765Z,97291.50
2023-02-19T06:31:32.969Z,97322.47
2023-02-19T06:34:29.998Z,97315.72
2023-02-19T06:37:29.719Z,97316.69
2023-02-19T06:40:44.578Z,97313.88
2023-02-19T06:43:40.467Z,97322.19
2023-02-19T06:46:39.425Z,97322.19
2023-02-19T06:50:12.014Z,97324.00
2023-02-19T06:53:01.471Z,97344.38
2023-02-19T06:56:30.227Z,97343.56
2023-02-19T07:05:56.836Z,97345.72
2023-02-19T07:08:49.035Z,97347.53
2023-02-19T07:11:59.042Z,97353.69
2023-02-19T07:30:10.146Z,97369.16
2023-02-19T07:32:57.060Z,97371.78
2023-02-19T07:35:52.455Z,97373.44
2023-02-19T07:38:39.348Z,97370.13
2023-02-19T07:41:29.702Z,97360.69
2023-02-19T07:44:27.267Z,97361.34
2023-02-19T07:47:14.174Z,97375.41
2023-02-19T07:50:03.845Z,97374.78
2023-02-19T07:52:51.836Z,97379.91
2023-02-19T07:55:38.613Z,97395.97
2023-02-19T07:58:25.440Z,97388.19
2023-02-19T08:01:16.666Z,97391.50
2023-02-19T08:04:03.508Z,97409.44
2023-02-19T08:06:50.270Z,97415.56
2023-02-19T08:09:38.038Z,97410.25
2023-02-19T08:12:43.648Z,97417.19
2023-02-19T08:15:30.447Z,97427.81
2023-02-19T08:18:18.418Z,97415.56
2023-02-19T08:21:08.278Z,97433.13
2023-02-19T08:23:55.180Z,97421.84
2023-02-19T08:26:47.352Z,97422.69
2023-02-19T08:29:34.974Z,97433.13
2023-02-19T08:32:21.760Z,97432.44
2023-02-19T08:35:08.574Z,97434.13
2023-02-19T08:37:56.948Z,97441.06
2023-02-19T08:40:44.058Z,97441.91
2023-02-19T08:43:30.846Z,97440.25
2023-02-19T08:46:17.822Z,97434.94
2023-02-19T08:49:04.678Z,97436.94
2023-02-19T08:51:51.486Z,97437.59
2023-02-19T08:54:38.242Z,97435.78
2023-02-19T08:57:25.043Z,97437.59
2023-02-19T09:00:12.762Z,97445.72
2023-02-19T09:02:59.645Z,97455.50
2023-02-19T09:05:49.342Z,97452.69
2023-02-19T09:08:36.125Z,97455.34
2023-02-19T09:11:22.946Z,97462.63
2023-02-19T09:14:10.118Z,97461.47
2023-02-19T09:16:56.917Z,97455.50
2023-02-19T09:19:46.598Z,97463.31
2023-02-19T09:22:33.350Z,97469.25
2023-02-19T09:25:22.528Z,97464.94
2023-02-19T09:28:09.287Z,97465.78
2023-02-19T09:30:56.113Z,97474.75
2023-02-19T09:33:44.464Z,97483.72
2023-02-19T09:36:33.396Z,97482.03
2023-02-19T09:39:23.629Z,97476.56
2023-02-19T09:42:10.438Z,97483.53
2023-02-19T09:44:59.016Z,97480.03
2023-02-19T09:47:46.252Z,97475.75
2023-02-19T09:50:37.593Z,97489.66
2023-02-19T09:53:27.409Z,97488.84
2023-02-19T09:56:14.278Z,97481.69
2023-02-19T09:59:01.307Z,97484.34
2023-02-19T10:01:49.635Z,97494.97
2023-02-19T10:04:37.712Z,97507.22
2023-02-19T10:07:26.670Z,97511.56
2023-02-19T10:10:13.406Z,97515.03
2023-02-19T10:13:42.505Z,97515.03
2023-02-19T10:16:29.681Z,97517.69
2023-02-19T10:19:16.642Z,97522.00
2023-02-19T10:22:04.208Z,97520.16
2023-02-19T10:24:54.407Z,97524.31
2023-02-19T10:27:41.223Z,97513.88
2023-02-19T10:30:38.617Z,97520.66
2023-02-19T10:33:26.056Z,97519.69
2023-02-19T10:36:23.472Z,97519.69
2023-02-19T10:39:35.745Z,97521.34
2023-02-19T10:42:23.296Z,97526.47
2023-02-19T10:45:22.615Z,97528.28
2023-02-19T10:48:24.644Z,97546.72
2023-02-19T10:51:21.558Z,97536.25
2023-02-19T10:54:19.836Z,97538.75
2023-02-19T10:57:34.611Z,97540.56
2023-02-19T11:00:27.439Z,97546.53
2023-02-19T11:03:22.183Z,97544.56
2023-02-19T11:06:12.588Z,97547.34
2023-02-19T11:09:00.162Z,97551.66
2023-02-19T11:11:52.288Z,97558.66
2023-02-19T11:14:45.572Z,97549.69
2023-02-19T11:17:32.474Z,97551.34
2023-02-19T11:20:21.464Z,97545.06
2023-02-19T11:23:16.268Z,97549.34
2023-02-19T11:26:08.205Z,97544.19
2023-02-19T11:29:16.489Z,97549.16
2023-02-19T11:32:22.282Z,97551.81
2023-02-19T11:35:17.622Z,97555.31
2023-02-19T11:38:11.453Z,97557.97
2023-02-19T11:41:22.655Z,97562.44
2023-02-19T11:44:12.570Z,97551.69
2023-02-19T11:47:44.814Z,97556.13
2023-02-19T11:50:49.767Z,97559.63
2023-02-19T11:53:44.982Z,97553.47
2023-02-19T11:56:34.930Z,97557.00
2023-02-19T11:59:53.905Z,97563.94
2023-02-19T12:02:44.325Z,97561.28
2023-02-19T12:05:53.572Z,97570.91
2023-02-19T12:08:59.650Z,97578.03
2023-02-19T12:12:14.211Z,97587.81
2023-02-19T12:15:20.166Z,97585.00
2023-02-19T12:18:25.645Z,97585.00
2023-02-19T12:21:21.379Z,97585.00
2023-02-19T12:24:23.056Z,97588.47
2023-02-19T12:27:17.715Z,97603.44
2023-02-19T12:30:33.481Z,97595.47
2023-02-19T12:33:44.903Z,97588.16
2023-02-19T12:36:40.304Z,97598.94
2023-02-19T12:40:05.034Z,97597.94
2023-02-19T12:43:12.299Z,97595.13
2023-02-19T12:46:06.820Z,97593.47
2023-02-19T12:49:00.110Z,97595.13
2023-02-19T12:51:49.249Z,97588.00
2023-02-19T12:54:40.667Z,97600.25
2023-02-19T12:57:31.771Z,97586.31
2023-02-19T13:00:40.226Z,97599.44
2023-02-19T13:03:33.794Z,97583.84
2023-02-19T13:06:30.445Z,97596.78
2023-02-19T13:09:39.749Z,97593.94
2023-02-19T13:12:30.370Z,97593.94
2023-02-19T13:15:44.619Z,97590.31
2023-02-19T13:18:40.356Z,97587.50
2023-02-19T13:22:09.528Z,97595.63
2023-02-19T13:25:00.282Z,97597.09
2023-02-19T13:27:54.616Z,97602.25
2023-02-19T13:31:06.793Z,97595.94
2023-02-19T13:34:08.094Z,97594.78
2023-02-19T13:36:55.437Z,97597.44
2023-02-19T13:39:48.776Z,97600.09
2023-02-19T13:42:36.912Z,97599.78
2023-02-19T13:45:44.192Z,97609.38
2023-02-19T13:48:36.256Z,97610.03
2023-02-19T13:51:29.043Z,97608.06
2023-02-19T13:54:42.092Z,97617.50
2023-02-19T13:57:30.566Z,97619.34
2023-02-19T14:00:49.624Z,97615.50
2023-02-19T14:03:41.223Z,97612.69
2023-02-19T14:06:28.851Z,97624.16
2023-02-19T14:09:34.674Z,97615.19
2023-02-19T14:12:22.836Z,97615.84
2023-02-19T14:15:41.510Z,97619.47
2023-02-19T14:18:42.719Z,97635.09
2023-02-19T14:21:39.940Z,97635.09
2023-02-19T14:24:26.908Z,97627.94
2023-02-19T14:27:13.791Z,97624.47
2023-02-19T14:30:00.646Z,97631.41
2023-02-19T14:32:54.582Z,97629.63
2023-02-19T14:35:47.448Z,97644.56
2023-02-19T14:38:38.801Z,97637.41
2023-02-19T14:41:30.852Z,97647.84
2023-02-19T14:44:24.895Z,97654.84
2023-02-19T14:47:15.293Z,97664.47
2023-02-19T14:50:05.999Z,97656.69
2023-02-19T14:52:55.376Z,97655.66
2023-02-19T14:55:42.918Z,97669.78
2023-02-19T14:58:32.308Z,97674.25
2023-02-19T15:01:27.018Z,97675.09
2023-02-19T15:04:34.315Z,97681.22
2023-02-19T15:07:30.382Z,97680.59
2023-02-19T15:10:18.792Z,97674.41
2023-02-19T15:13:12.004Z,97682.22
2023-02-19T15:15:59.148Z,97683.06
2023-02-19T15:18:47.159Z,97684.88
2023-02-19T15:21:36.068Z,97683.06
2023-02-19T15:24:23.047Z,97686.53
2023-02-19T15:27:17.961Z,97693.69
2023-02-19T15:30:18.650Z,97683.88
2023-02-19T15:33:16.797Z,97684.72
2023-02-19T15:36:07.339Z,97684.06
2023-02-19T15:38:56.602Z,97681.41
2023-02-19T15:41:51.471Z,97684.88
2023-02-19T15:44:49.404Z,97695.34
2023-02-19T15:47:49.121Z,97694.69
2023-02-19T15:50:39.271Z,97692.19
2023-02-19T15:53:29.714Z,97692.84
2023-02-19T15:56:28.100Z,97695.50
2023-02-19T15:59:20.552Z,97702.47
2023-02-19T16:02:12.329Z,97700.00
2023-02-19T16:05:02.150Z,97703.63
2023-02-19T16:08:07.410Z,97697.50
2023-02-19T16:10:56.169Z,97705.47
2023-02-19T16:13:44.520Z,97717.91
2023-02-19T16:16:36.249Z,97723.41
2023-02-19T16:19:31.201Z,97729.53
2023-02-19T16:22:20.135Z,97722.56
2023-02-19T16:25:07.276Z,97729.69
2023-02-19T16:27:54.423Z,97732.34
2023-02-19T16:30:41.827Z,97740.31
2023-02-19T16:33:41.189Z,97752.13
2023-02-19T16:36:41.232Z,97752.94
2023-02-19T16:39:28.136Z,97764.72
2023-02-19T16:42:15.084Z,97761.25
2023-02-19T16:45:01.931Z,97760.56
2023-02-19T16:47:51.096Z,97748.59
2023-02-19T16:50:39.570Z,97760.72
2023-02-19T16:53:26.360Z,97758.25
2023-02-19T16:56:22.741Z,97777.81
2023-02-19T16:59:09.547Z,97765.03
2023-02-19T17:01:56.402Z,97771.34
2023-02-19T17:04:43.235Z,97776.66
2023-02-19T17:07:30.045Z,97784.94
2023-02-19T17:10:23.745Z,97790.25
2023-02-19T17:13:19.484Z,97792.09
2023-02-19T17:16:20.579Z,97800.19
2023-02-19T17:19:25.190Z,97798.41
2023-02-19T17:22:16.977Z,97800.69
2023-02-19T17:25:03.904Z,97814.78
2023-02-19T17:27:50.708Z,97822.09
2023-02-19T17:30:39.888Z,97827.56
2023-02-19T17:33:26.885Z,97828.56
2023-02-19T17:36:30.397Z,97841.84
2023-02-19T17:39:17.508Z,97836.19
2023-02-19T17:42:05.201Z,97845.13
2023-02-19T17:44:53.327Z,97847.13
2023-02-19T17:47:42.435Z,97850.59
2023-02-19T17:50:33.116Z,97858.72
2023-02-19T17:53:19.863Z,97873.28
2023-02-19T17:56:06.966Z,97884.91
2023-02-19T17:58:57.479Z,97880.59
2023-02-19T18:01:46.007Z,97873.94
2023-02-19T18:04:47.178Z,97861.66
2023-02-19T18:07:41.428Z,97866.78
2023-02-19T18:10:52.699Z,97870.72
2023-02-19T18:14:04.528Z,97880.50
2023-02-19T18:16:59.018Z,97894.97
2023-02-19T18:20:02.594Z,97888.78
2023-02-19T18:22:57.990Z,97900.75
2023-02-19T18:25:49.457Z,97909.56
2023-02-19T18:28:46.577Z,97886.78
2023-02-19T18:31:46.053Z,97894.72
2023-02-19T18:34:44.650Z,97906.47
2023-02-19T18:37:42.621Z,97923.44
2023-02-19T18:40:33.229Z,97921.41
2023-02-19T18:43:36.462Z,97906.97
2023-02-19T18:46:35.132Z,97919.53
2023-02-19T18:49:33.480Z,97919.69
2023-02-19T18:52:26.602Z,97919.84
2023-02-19T18:55:20.203Z,97929.00
2023-02-19T18:58:16.611Z,97919.19
2023-02-19T19:01:04.358Z,97921.97
2023-02-19T19:04:00.036Z,97927.28
2023-02-19T19:06:50.318Z,97927.97
2023-02-19T19:09:47.008Z,97927.59
2023-02-19T19:12:43.594Z,97932.22
2023-02-19T19:15:44.322Z,97927.91
2023-02-19T19:18:46.187Z,97923.56
2023-02-19T19:21:33.144Z,97935.69
2023-02-19T19:24:24.433Z,97924.75
2023-02-19T19:27:22.526Z,97931.91
2023-02-19T19:30:11.810Z,97917.91
2023-02-19T19:33:01.513Z,97927.75
2023-02-19T19:35:49.275Z,97914.56
2023-02-19T19:38:40.661Z,97906.09
2023-02-19T19:41:27.821Z,97921.88
2023-02-19T19:44:20.419Z,97918.53
2023-02-19T19:47:07.607Z,97917.69
2023-02-19T19:49:54.764Z,97919.69
2023-02-19T19:52:44.861Z,97925.94
2023-02-19T19:55:32.000Z,97936.56
2023-02-19T19:58:31.546Z,97939.53
2023-02-19T20:01:21.279Z,97934.25
2023-02-19T20:04:13.508Z,97933.53
2023-02-19T20:07:05.915Z,97949.69
2023-02-19T20:09:55.724Z,97935.66
2023-02-19T20:12:45.468Z,97942.63
2023-02-19T20:15:38.657Z,97956.06
2023-02-19T20:18:31.276Z,97947.28
2023-02-19T20:21:21.078Z,97955.50
2023-02-19T20:24:13.917Z,97961.63
2023-02-19T20:27:07.288Z,97964.28
2023-02-19T20:30:03.570Z,97974.59
2023-02-19T20:36:08.375Z,97978.09
2023-02-19T20:39:06.715Z,97962.38
2023-02-19T20:42:08.954Z,97964.88
2023-02-19T20:45:01.986Z,97960.72
2023-02-19T20:47:51.047Z,97967.00
2023-02-19T20:50:44.342Z,97966.03
2023-02-19T20:53:37.278Z,97965.34
2023-02-19T20:56:36.352Z,97972.59
2023-02-19T20:59:30.282Z,97979.72
2023-02-19T21:02:35.128Z,97986.91
2023-02-19T21:05:28.066Z,97972.75
2023-02-19T21:08:21.855Z,97977.88
2023-02-19T21:11:20.755Z,97971.94
2023-02-19T21:14:14.924Z,97974.88
2023-02-19T21:17:07.017Z,97976.69
2023-02-19T21:19:54.738Z,97973.22
2023-02-19T21:22:52.431Z,97988.34
2023-02-19T21:28:42.738Z,97973.34
2023-02-19T21:31:49.170Z,97971.84
2023-02-19T21:34:37.242Z,97981.81
2023-02-19T21:37:25.658Z,97965.72
2023-02-19T21:40:29.314Z,97966.69
2023-02-19T21:43:24.770Z,97964.19
2023-02-19T21:46:23.947Z,97966.84
2023-02-19T21:49:29.212Z,97968.81
2023-02-19T21:52:18.606Z,97971.44
2023-02-19T21:55:42.920Z,97973.97
2023-02-19T21:58:55.265Z,97987.34
2023-02-19T22:01:53.608Z,97996.38
2023-02-19T22:13:11.995Z,97985.16
2023-02-19T22:15:59.168Z,98005.59
2023-02-19T22:18:55.786Z,98008.56
2023-02-19T22:21:45.282Z,97989.75
2023-02-19T22:24:39.219Z,97992.56
2023-02-19T22:27:30.155Z,98000.34
2023-02-19T22:30:33.709Z,98000.22
2023-02-19T22:33:29.922Z,98010.81
2023-02-19T22:36:28.020Z,98016.41
2023-02-19T22:39:44.921Z,98004.28
2023-02-19T22:42:48.508Z,98008.75
2023-02-19T22:45:55.013Z,98014.88
2023-02-19T22:49:15.403Z,98009.88
2023-02-19T22:52:14.688Z,98014.75
2023-02-19T22:55:09.668Z,98010.88
2023-02-19T22:58:02.381Z,98008.94
2023-02-19T23:00:55.269Z,98007.41
2023-02-19T23:03:53.597Z,98014.22
2023-02-19T23:06:49.438Z,98011.56
2023-02-19T23:12:51.077Z,98000.72
2023-02-19T23:15:39.435Z,98020.19
2023-02-19T23:18:36.389Z,98001.72
2023-02-19T23:21:38.752Z,98001.84
2023-02-19T23:24:26.153Z,98009.66
2023-02-19T23:27:29.150Z,98006.16
2023-02-19T23:30:28.455Z,98021.75
2023-02-19T23:33:18.780Z,98008.13
2023-02-19T23:41:22.449Z,98011.78
2023-02-19T23:44:09.547Z,97999.38
2023-02-19T23:47:04.303Z,97996.72
2023-02-19T23:49:54.057Z,97992.41
2023-02-19T23:52:41.162Z,97991.41
2023-02-19T23:55:28.744Z,97990.88
2023-02-19T23:58:19.815Z,97986.41
